Terminal Aerodrome Forecast
Issued by NWS

Home | Current Version | Previous Version | Text Only | Print | Product List | Glossary On
Versions: 1 2 3 4 5 6 7 8 9 10 11 12 13
000
FTUS42 KMLB 291735
TAFSFB
TAF
KSFB 291735Z 2918/3018 VRB05KT P6SM SCT040 SCT070
     FM292100 12006KT P6SM VCTS SCT045CB BKN250
     FM300100 19003KT P6SM SCT025 SCT250
     FM301400 27006KT P6SM SCT020 SCT050=

USA.gov is the U.S. government's official web portal to all federal, state and local government web resources and services.